createdAt,value
2022-12-31T00:00:11.544Z,11.40
2022-12-31T00:02:39.390Z,10.97
2022-12-31T00:05:08.251Z,11.37
2022-12-31T00:10:03.444Z,10.97
2022-12-31T00:12:32.498Z,12.10
2022-12-31T00:15:00.270Z,12.57
2022-12-31T00:17:28.052Z,12.10
2022-12-31T00:19:55.779Z,11.30
2022-12-31T00:22:23.476Z,10.93
2022-12-31T00:24:51.179Z,10.13
2022-12-31T00:27:19.007Z,10.67
2022-12-31T00:29:48.076Z,10.00
2022-12-31T00:32:15.782Z,10.00
2022-12-31T00:34:43.545Z,9.43
2022-12-31T00:37:11.222Z,10.60
2022-12-31T00:39:38.961Z,10.50
2022-12-31T00:42:06.795Z,9.00
2022-12-31T00:44:34.503Z,8.83
2022-12-31T00:47:03.626Z,8.60
2022-12-31T00:49:31.446Z,8.87
2022-12-31T00:51:59.237Z,7.53
2022-12-31T00:54:27.053Z,8.10
2022-12-31T00:56:54.798Z,10.33
2022-12-31T00:59:22.730Z,7.23
2022-12-31T01:01:51.076Z,7.20
2022-12-31T01:04:21.844Z,9.13
2022-12-31T01:06:49.671Z,6.33
2022-12-31T01:09:18.463Z,6.77
2022-12-31T01:11:46.395Z,7.67
2022-12-31T01:14:16.335Z,7.60
2022-12-31T01:16:45.887Z,7.37
2022-12-31T01:19:17.129Z,6.60
2022-12-31T01:21:47.517Z,10.60
2022-12-31T01:24:15.765Z,7.90
2022-12-31T01:26:43.845Z,6.37
2022-12-31T01:29:12.002Z,6.70
2022-12-31T01:31:41.104Z,6.97
2022-12-31T01:34:09.126Z,7.07
2022-12-31T01:36:38.495Z,6.80
2022-12-31T01:39:09.421Z,7.40
2022-12-31T01:41:39.853Z,6.93
2022-12-31T01:44:40.745Z,7.30
2022-12-31T01:47:15.030Z,6.57
2022-12-31T01:49:45.830Z,6.90
2022-12-31T01:52:18.710Z,6.37
2022-12-31T01:54:53.067Z,6.33
2022-12-31T01:57:22.024Z,6.17
2022-12-31T01:59:49.765Z,6.23
2022-12-31T02:02:18.189Z,6.30
2022-12-31T02:04:46.360Z,8.07
2022-12-31T02:07:14.150Z,6.50
2022-12-31T02:09:43.690Z,7.50
2022-12-31T02:12:13.101Z,6.57
2022-12-31T02:14:45.274Z,6.63
2022-12-31T02:17:23.527Z,7.13
2022-12-31T02:20:32.184Z,7.90
2022-12-31T02:23:42.958Z,7.43
2022-12-31T02:26:44.784Z,8.00
2022-12-31T02:29:58.796Z,8.37
2022-12-31T02:32:37.383Z,8.63
2022-12-31T02:35:10.946Z,9.97
2022-12-31T02:37:40.653Z,9.57
2022-12-31T02:40:12.097Z,8.30
2022-12-31T02:42:39.775Z,10.13
2022-12-31T02:45:09.853Z,10.13
2022-12-31T02:47:51.182Z,7.90
2022-12-31T02:50:29.459Z,6.33
2022-12-31T02:53:14.234Z,7.17
2022-12-31T02:55:50.309Z,6.57
2022-12-31T02:58:43.980Z,6.53
2022-12-31T03:01:30.231Z,6.53
2022-12-31T03:04:23.765Z,4.90
2022-12-31T03:06:52.192Z,5.13
2022-12-31T03:09:19.924Z,5.27
2022-12-31T03:12:05.657Z,5.50
2022-12-31T03:14:33.294Z,6.20
2022-12-31T03:17:00.945Z,5.40
2022-12-31T03:19:47.655Z,7.13
2022-12-31T03:22:31.048Z,5.23
2022-12-31T03:25:19.289Z,6.27
2022-12-31T03:27:48.132Z,7.10
2022-12-31T03:30:18.825Z,8.43
2022-12-31T03:32:48.527Z,7.10
2022-12-31T03:35:20.271Z,8.73
2022-12-31T03:37:49.360Z,8.90
2022-12-31T03:40:18.308Z,9.60
2022-12-31T03:42:46.251Z,11.23
2022-12-31T03:45:14.976Z,9.97
2022-12-31T03:47:43.300Z,10.27
2022-12-31T03:50:13.388Z,10.10
2022-12-31T03:52:42.665Z,9.40
2022-12-31T03:55:11.345Z,8.97
2022-12-31T03:57:39.396Z,8.50
2022-12-31T04:00:10.708Z,8.90
2022-12-31T04:02:38.669Z,10.67
2022-12-31T04:05:07.479Z,8.30
2022-12-31T04:07:35.343Z,9.03
2022-12-31T04:10:05.557Z,8.73
2022-12-31T04:12:33.753Z,9.20
2022-12-31T04:15:01.917Z,9.63
2022-12-31T04:17:29.722Z,9.53
2022-12-31T04:19:57.503Z,11.37
2022-12-31T04:22:25.258Z,10.10
2022-12-31T04:24:53.055Z,9.30
2022-12-31T04:27:22.298Z,10.40
2022-12-31T04:29:49.982Z,9.93
2022-12-31T04:32:17.713Z,9.57
2022-12-31T04:34:45.441Z,9.63
2022-12-31T04:37:13.147Z,12.73
2022-12-31T04:39:40.888Z,12.00
2022-12-31T04:42:08.539Z,9.90
2022-12-31T04:44:37.613Z,12.60
2022-12-31T04:47:05.367Z,11.83
2022-12-31T04:49:33.021Z,10.27
2022-12-31T04:52:00.697Z,10.33
2022-12-31T04:54:28.439Z,10.77
2022-12-31T04:56:56.149Z,11.30
2022-12-31T04:59:23.834Z,9.23
2022-12-31T05:01:53.038Z,11.40
2022-12-31T05:04:20.946Z,8.70
2022-12-31T05:06:48.645Z,7.43
2022-12-31T05:09:16.413Z,6.63
2022-12-31T05:11:44.186Z,7.43
2022-12-31T05:14:12.092Z,7.40
2022-12-31T05:16:39.970Z,6.30
2022-12-31T05:19:09.635Z,7.43
2022-12-31T05:21:37.659Z,5.70
2022-12-31T05:24:05.900Z,5.73
2022-12-31T05:26:33.661Z,6.97
2022-12-31T05:29:01.497Z,5.63
2022-12-31T05:31:29.285Z,4.80
2022-12-31T05:33:57.343Z,5.07
2022-12-31T05:36:26.696Z,4.93
2022-12-31T05:38:54.447Z,4.30
2022-12-31T05:41:22.212Z,4.93
2022-12-31T05:43:51.413Z,5.17
2022-12-31T05:46:19.243Z,5.93
2022-12-31T05:48:47.024Z,5.40
2022-12-31T05:51:14.779Z,3.97
2022-12-31T05:53:44.029Z,3.67
2022-12-31T05:56:11.727Z,3.87
2022-12-31T05:58:39.476Z,4.13
2022-12-31T06:01:07.230Z,2.80
2022-12-31T06:03:34.959Z,2.90
2022-12-31T06:06:02.691Z,2.20
2022-12-31T06:08:30.373Z,2.80
2022-12-31T06:10:59.405Z,2.60
2022-12-31T06:13:27.124Z,3.23
2022-12-31T06:15:54.903Z,2.80
2022-12-31T06:18:22.780Z,2.70
2022-12-31T06:20:50.550Z,3.17
2022-12-31T06:23:18.293Z,2.07
2022-12-31T06:25:46.034Z,2.37
2022-12-31T06:28:20.151Z,2.37
2022-12-31T06:30:48.850Z,2.13
2022-12-31T06:33:16.575Z,2.00
2022-12-31T06:35:44.315Z,1.77
2022-12-31T06:38:12.012Z,1.90
2022-12-31T06:40:39.728Z,1.60
2022-12-31T06:43:07.498Z,2.10
2022-12-31T06:45:36.630Z,1.60
2022-12-31T06:48:04.666Z,2.57
2022-12-31T06:50:32.574Z,1.50
2022-12-31T06:53:00.566Z,1.50
2022-12-31T06:55:29.078Z,1.13
2022-12-31T06:57:57.611Z,2.40
2022-12-31T07:00:25.682Z,1.63
2022-12-31T07:03:17.977Z,1.27
2022-12-31T07:05:48.147Z,1.47
2022-12-31T07:08:38.020Z,1.63
2022-12-31T07:11:15.337Z,1.40
2022-12-31T07:14:04.675Z,2.50
2022-12-31T07:16:54.075Z,1.17
2022-12-31T07:19:34.565Z,3.07
2022-12-31T07:22:04.062Z,1.50
2022-12-31T07:24:32.311Z,1.53
2022-12-31T07:27:11.770Z,1.63
2022-12-31T07:29:57.705Z,1.40
2022-12-31T07:32:40.313Z,3.77
2022-12-31T07:35:19.801Z,5.43
2022-12-31T07:37:53.469Z,7.07
2022-12-31T07:40:27.973Z,3.43
2022-12-31T07:43:08.368Z,2.57
2022-12-31T07:45:42.557Z,2.47
2022-12-31T07:48:22.961Z,3.10
2022-12-31T07:50:54.415Z,3.20
2022-12-31T07:53:23.043Z,3.93
2022-12-31T07:55:55.776Z,5.20
2022-12-31T07:58:30.288Z,8.70
2022-12-31T08:00:59.305Z,3.07
2022-12-31T08:03:46.487Z,2.70
2022-12-31T08:06:23.858Z,2.70
2022-12-31T08:08:58.074Z,2.80
2022-12-31T08:11:31.041Z,3.03
2022-12-31T08:14:02.626Z,3.10
2022-12-31T08:16:31.295Z,3.80
2022-12-31T08:18:59.628Z,3.30
2022-12-31T08:21:42.383Z,3.90
2022-12-31T08:24:20.361Z,3.70
2022-12-31T08:26:58.777Z,4.40
2022-12-31T08:29:36.111Z,4.10
2022-12-31T08:32:13.118Z,3.00
2022-12-31T08:34:53.530Z,3.37
2022-12-31T08:37:31.083Z,3.60
2022-12-31T08:40:11.435Z,3.13
2022-12-31T08:42:49.249Z,3.43
2022-12-31T08:45:26.498Z,3.10
2022-12-31T08:48:02.454Z,3.63
2022-12-31T08:50:31.177Z,3.60
2022-12-31T08:53:01.348Z,3.10
2022-12-31T08:55:29.794Z,4.20
2022-12-31T08:58:10.963Z,3.23
2022-12-31T09:00:39.959Z,4.00
2022-12-31T09:03:23.560Z,3.70
2022-12-31T09:05:59.305Z,3.70
2022-12-31T09:08:42.623Z,3.83
2022-12-31T09:11:22.551Z,5.13
2022-12-31T09:14:07.685Z,4.20
2022-12-31T09:16:49.706Z,4.47
2022-12-31T09:19:17.507Z,6.33
2022-12-31T09:21:45.918Z,4.77
2022-12-31T09:24:16.740Z,6.67
2022-12-31T09:26:58.291Z,5.63
2022-12-31T09:29:38.785Z,5.60
2022-12-31T09:32:13.844Z,5.27
2022-12-31T09:34:47.802Z,5.17
2022-12-31T09:37:19.233Z,5.83
2022-12-31T09:39:49.419Z,3.90
2022-12-31T09:42:39.826Z,9.43
2022-12-31T09:45:29.583Z,6.13
2022-12-31T09:48:31.726Z,6.57
2022-12-31T09:51:09.823Z,24.77
2022-12-31T09:53:42.321Z,43.77
2022-12-31T09:56:21.554Z,20.23
2022-12-31T09:59:01.232Z,8.90
2022-12-31T10:01:47.910Z,16.00
2022-12-31T10:04:39.832Z,12.20
2022-12-31T10:07:22.233Z,7.83
2022-12-31T10:10:00.839Z,10.67
2022-12-31T10:12:46.609Z,4.87
2022-12-31T10:15:36.516Z,5.43
2022-12-31T10:18:12.884Z,5.40
2022-12-31T10:20:55.978Z,3.47
2022-12-31T10:23:52.282Z,3.80
2022-12-31T10:26:53.387Z,3.63
2022-12-31T10:29:37.395Z,3.13
2022-12-31T10:32:17.197Z,4.77
2022-12-31T10:34:56.921Z,3.63
2022-12-31T10:37:29.914Z,3.50
2022-12-31T10:40:11.592Z,3.33
2022-12-31T10:43:08.064Z,5.50
2022-12-31T10:46:17.643Z,3.43
2022-12-31T10:49:16.293Z,7.20
2022-12-31T10:52:18.535Z,5.87
2022-12-31T10:55:24.851Z,4.93
2022-12-31T10:58:21.475Z,4.30
2022-12-31T11:00:59.835Z,2.60
2022-12-31T11:04:04.670Z,4.97
2022-12-31T11:07:15.319Z,4.23
2022-12-31T11:10:22.440Z,3.17
2022-12-31T11:13:17.238Z,3.30
2022-12-31T11:16:09.136Z,6.43
2022-12-31T11:18:44.837Z,10.33
2022-12-31T11:21:28.297Z,4.57
2022-12-31T11:24:06.865Z,3.40
2022-12-31T11:26:51.329Z,3.30
2022-12-31T11:29:38.374Z,8.90
2022-12-31T11:32:24.952Z,4.87
2022-12-31T11:35:29.376Z,3.83
2022-12-31T11:38:11.062Z,2.63
2022-12-31T11:40:43.021Z,4.27
2022-12-31T11:43:23.469Z,2.40
2022-12-31T11:46:08.274Z,2.50
2022-12-31T11:48:44.579Z,3.17
2022-12-31T11:51:36.847Z,8.70
2022-12-31T11:54:46.453Z,12.37
2022-12-31T11:57:23.435Z,29.03
2022-12-31T11:59:55.534Z,5.67
2022-12-31T12:02:27.827Z,11.07
2022-12-31T12:05:08.294Z,21.93
2022-12-31T12:07:38.304Z,2.77
2022-12-31T12:10:20.420Z,3.07
2022-12-31T12:12:48.127Z,3.27
2022-12-31T12:15:21.273Z,2.47
2022-12-31T12:17:53.872Z,2.47
2022-12-31T12:20:29.139Z,2.07
2022-12-31T12:22:58.879Z,2.43
2022-12-31T12:25:29.069Z,1.70
2022-12-31T12:27:56.785Z,1.70
2022-12-31T12:30:27.416Z,2.80
2022-12-31T12:32:56.810Z,1.70
2022-12-31T12:35:28.606Z,1.73
2022-12-31T12:38:01.013Z,1.40
2022-12-31T12:40:33.839Z,2.20
2022-12-31T12:43:03.438Z,3.07
2022-12-31T12:45:46.377Z,2.10
2022-12-31T12:48:21.803Z,1.80
2022-12-31T12:50:51.064Z,1.40
2022-12-31T12:53:36.954Z,1.60
2022-12-31T12:56:18.735Z,2.13
2022-12-31T12:58:59.750Z,1.40
2022-12-31T13:01:36.701Z,2.20
2022-12-31T13:04:41.697Z,1.53
2022-12-31T13:07:33.673Z,1.73
2022-12-31T13:10:21.857Z,1.27
2022-12-31T13:13:23.354Z,1.90
2022-12-31T13:15:51.904Z,1.87
2022-12-31T13:18:30.979Z,1.67
2022-12-31T13:21:04.378Z,3.23
2022-12-31T13:23:42.658Z,2.30
2022-12-31T13:26:16.217Z,2.17
2022-12-31T13:28:47.748Z,17.93
2022-12-31T13:31:19.105Z,3.63
2022-12-31T13:33:52.382Z,6.97
2022-12-31T13:36:23.204Z,18.00
2022-12-31T13:38:54.032Z,19.10
2022-12-31T13:41:25.972Z,35.17
2022-12-31T13:43:59.537Z,19.77
2022-12-31T13:46:37.840Z,32.47
2022-12-31T13:49:13.880Z,32.53
2022-12-31T13:51:45.518Z,26.03
2022-12-31T13:54:25.702Z,97.03
2022-12-31T13:56:55.124Z,80.57
2022-12-31T13:59:29.314Z,50.03
2022-12-31T14:02:02.948Z,79.93
2022-12-31T14:04:37.312Z,135.10
2022-12-31T14:07:11.678Z,85.20
2022-12-31T14:09:40.754Z,107.87
2022-12-31T14:12:28.162Z,161.87
2022-12-31T14:15:04.091Z,62.60
2022-12-31T14:17:39.152Z,75.37
2022-12-31T14:20:19.258Z,42.00
2022-12-31T14:22:54.930Z,58.43
2022-12-31T14:25:29.831Z,44.27
2022-12-31T14:27:59.269Z,60.10
2022-12-31T14:30:31.782Z,41.53
2022-12-31T14:33:36.262Z,26.73
2022-12-31T14:36:14.144Z,4.07
2022-12-31T14:38:56.029Z,11.67
2022-12-31T14:41:36.511Z,4.73
2022-12-31T14:44:19.187Z,4.70
2022-12-31T14:47:00.101Z,4.37
2022-12-31T14:49:39.745Z,5.43
2022-12-31T14:52:21.497Z,8.40
2022-12-31T14:54:59.389Z,4.33
2022-12-31T14:58:01.417Z,6.00
2022-12-31T15:00:31.173Z,3.60
2022-12-31T15:03:01.102Z,3.60
2022-12-31T15:05:30.722Z,3.70
2022-12-31T15:08:27.794Z,2.80
2022-12-31T15:11:12.668Z,5.43
2022-12-31T15:13:57.822Z,2.80
2022-12-31T15:16:39.817Z,3.30
2022-12-31T15:19:44.225Z,2.53
2022-12-31T15:22:25.954Z,2.20
2022-12-31T15:24:53.939Z,2.40
2022-12-31T15:27:35.081Z,2.13
2022-12-31T15:30:07.071Z,4.20
2022-12-31T15:32:38.114Z,2.17
2022-12-31T15:35:26.680Z,3.20
2022-12-31T15:38:02.220Z,2.30
2022-12-31T15:40:30.766Z,4.23
2022-12-31T15:43:03.906Z,2.80
2022-12-31T15:45:37.990Z,16.20
2022-12-31T15:48:14.848Z,5.07
2022-12-31T15:50:44.296Z,3.33
2022-12-31T15:53:25.793Z,4.10
2022-12-31T15:55:55.687Z,3.80
2022-12-31T15:58:27.820Z,6.70
2022-12-31T16:01:04.625Z,11.43
2022-12-31T16:03:33.229Z,6.50
2022-12-31T16:06:03.424Z,3.77
2022-12-31T16:08:33.288Z,14.37
2022-12-31T16:11:01.823Z,3.30
2022-12-31T16:13:31.429Z,4.03
2022-12-31T16:16:03.973Z,3.33
2022-12-31T16:18:39.295Z,3.73
2022-12-31T16:21:08.071Z,7.30
2022-12-31T16:23:42.135Z,6.93
2022-12-31T16:26:11.945Z,4.90
2022-12-31T16:28:39.824Z,4.83
2022-12-31T16:31:15.989Z,3.73
2022-12-31T16:33:43.704Z,5.17
2022-12-31T16:36:21.621Z,5.27
2022-12-31T16:38:49.950Z,4.67
2022-12-31T16:41:19.756Z,4.20
2022-12-31T16:43:48.844Z,3.10
2022-12-31T16:46:23.027Z,3.60
2022-12-31T16:48:56.451Z,7.40
2022-12-31T16:51:27.116Z,6.33
2022-12-31T16:53:55.523Z,4.30
2022-12-31T16:56:27.486Z,6.40
2022-12-31T16:59:03.009Z,10.93
2022-12-31T17:01:35.456Z,10.30
2022-12-31T17:04:06.062Z,9.20
2022-12-31T17:06:33.903Z,7.00
2022-12-31T17:09:14.748Z,6.40
2022-12-31T17:11:50.417Z,2.40
2022-12-31T17:14:22.977Z,1.80
2022-12-31T17:17:02.835Z,8.63
2022-12-31T17:19:38.777Z,9.03
2022-12-31T17:22:11.278Z,6.23
2022-12-31T17:24:40.241Z,4.77
2022-12-31T17:27:10.411Z,6.77
2022-12-31T17:29:38.320Z,8.07
2022-12-31T17:32:26.705Z,5.20
2022-12-31T17:34:54.757Z,7.00
2022-12-31T17:37:27.052Z,5.90
2022-12-31T17:40:17.029Z,8.03
2022-12-31T17:42:47.510Z,5.93
2022-12-31T17:45:20.939Z,5.27
2022-12-31T17:47:53.892Z,36.27
2022-12-31T17:50:23.734Z,12.40
2022-12-31T17:52:53.892Z,34.00
2022-12-31T17:55:21.565Z,15.97
2022-12-31T17:57:53.609Z,8.73
2022-12-31T18:00:24.251Z,9.27
2022-12-31T18:02:53.913Z,11.80
2022-12-31T18:05:23.007Z,42.93
2022-12-31T18:07:51.758Z,21.40
2022-12-31T18:10:21.881Z,17.83
2022-12-31T18:12:51.394Z,15.70
2022-12-31T18:15:25.133Z,11.67
2022-12-31T18:17:54.214Z,11.50
2022-12-31T18:20:22.001Z,9.80
2022-12-31T18:22:49.853Z,8.83
2022-12-31T18:25:20.733Z,12.10
2022-12-31T18:27:49.274Z,56.23
2022-12-31T18:30:17.743Z,30.00
2022-12-31T18:32:46.393Z,18.20
2022-12-31T18:35:48.637Z,13.87
2022-12-31T18:38:07.997Z,17.67
2022-12-31T18:40:35.853Z,34.23
2022-12-31T18:43:05.227Z,30.83
2022-12-31T18:45:33.165Z,16.47
2022-12-31T18:48:01.024Z,12.10
2022-12-31T18:50:30.184Z,13.00
2022-12-31T18:52:57.858Z,11.30
2022-12-31T18:55:33.202Z,12.17
2022-12-31T18:58:00.954Z,8.83
2022-12-31T19:00:28.680Z,15.37
2022-12-31T19:02:56.455Z,17.27
2022-12-31T19:05:26.813Z,17.30
2022-12-31T19:07:56.445Z,7.87
2022-12-31T19:10:24.666Z,12.97
2022-12-31T19:12:52.806Z,15.03
2022-12-31T19:15:30.255Z,16.33
2022-12-31T19:17:58.277Z,47.30
2022-12-31T19:20:26.326Z,32.23
2022-12-31T19:22:55.832Z,13.57
2022-12-31T19:25:25.796Z,49.83
2022-12-31T19:27:54.247Z,24.03
2022-12-31T19:30:25.785Z,22.47
2022-12-31T19:32:54.296Z,32.70
2022-12-31T19:35:23.155Z,11.73
2022-12-31T19:37:52.858Z,11.07
2022-12-31T19:40:25.190Z,10.90
2022-12-31T19:42:54.897Z,7.03
2022-12-31T19:45:24.437Z,9.47
2022-12-31T19:47:52.994Z,5.20
2022-12-31T19:50:22.989Z,7.00
2022-12-31T19:52:52.670Z,9.73
2022-12-31T19:55:23.226Z,7.10
2022-12-31T19:57:50.961Z,8.90
2022-12-31T20:00:20.788Z,6.43
2022-12-31T20:02:49.444Z,8.07
2022-12-31T20:05:19.443Z,11.80
2022-12-31T20:07:47.407Z,12.30
2022-12-31T20:10:15.660Z,22.97
2022-12-31T20:12:44.934Z,8.10
2022-12-31T20:15:13.007Z,11.70
2022-12-31T20:17:40.710Z,9.13
2022-12-31T20:20:09.306Z,10.43
2022-12-31T20:22:37.135Z,13.90
2022-12-31T20:25:05.364Z,12.53
2022-12-31T20:27:33.511Z,7.70
2022-12-31T20:30:02.648Z,8.27
2022-12-31T20:32:30.465Z,9.13
2022-12-31T20:34:58.389Z,11.87
2022-12-31T20:37:26.118Z,7.57
2022-12-31T20:39:53.797Z,10.10
2022-12-31T20:42:21.543Z,121.43
2022-12-31T20:44:49.239Z,12.63
2022-12-31T20:47:18.279Z,6.40
2022-12-31T20:50:10.447Z,8.87
2022-12-31T20:52:33.725Z,5.73
2022-12-31T20:55:01.399Z,8.47
2022-12-31T20:57:33.587Z,7.27
2022-12-31T21:00:01.896Z,8.87
2022-12-31T21:02:41.654Z,7.37
2022-12-31T21:05:11.202Z,6.77
2022-12-31T21:07:39.104Z,23.27
2022-12-31T21:10:07.620Z,10.37
2022-12-31T21:12:43.557Z,7.50
2022-12-31T21:15:12.255Z,6.87
2022-12-31T21:17:41.568Z,9.83
2022-12-31T21:20:10.353Z,8.90
2022-12-31T21:22:38.190Z,7.43
2022-12-31T21:25:06.604Z,6.53
2022-12-31T21:27:34.333Z,9.10
2022-12-31T21:30:18.117Z,6.47
2022-12-31T21:32:48.031Z,5.77
2022-12-31T21:38:04.304Z,7.90
2022-12-31T21:40:32.398Z,13.43
2022-12-31T21:43:00.149Z,8.00
2022-12-31T21:45:27.938Z,6.50
2022-12-31T21:48:17.084Z,8.60
2022-12-31T21:50:46.008Z,7.13
2022-12-31T21:53:16.537Z,5.73
2022-12-31T21:56:04.889Z,5.63
2022-12-31T21:58:32.707Z,9.85
2022-12-31T22:01:18.489Z,7.77
2022-12-31T22:03:47.707Z,12.13
2022-12-31T22:06:20.652Z,8.07
2022-12-31T22:08:50.602Z,5.67
2022-12-31T22:11:20.088Z,5.57
2022-12-31T22:13:48.757Z,7.07
2022-12-31T22:16:17.189Z,8.90
2022-12-31T22:18:45.157Z,8.37
2022-12-31T22:21:19.522Z,8.87
2022-12-31T22:23:49.588Z,8.70
2022-12-31T22:26:18.496Z,10.20
2022-12-31T22:28:47.091Z,7.57
2022-12-31T22:31:16.169Z,7.43
2022-12-31T22:33:44.585Z,9.03
2022-12-31T22:36:15.885Z,7.57
2022-12-31T22:38:47.099Z,6.00
2022-12-31T22:41:17.038Z,7.13
2022-12-31T22:43:46.569Z,5.60
2022-12-31T22:46:19.317Z,8.17
2022-12-31T22:48:47.420Z,8.73
2022-12-31T22:51:17.778Z,7.30
2022-12-31T22:53:46.237Z,8.87
2022-12-31T22:56:16.221Z,9.37
2022-12-31T22:58:44.446Z,21.70
2022-12-31T23:01:17.128Z,20.70
2022-12-31T23:03:45.200Z,17.73
2022-12-31T23:06:13.203Z,22.43
2022-12-31T23:09:02.865Z,51.17
2022-12-31T23:11:29.596Z,25.23
2022-12-31T23:14:14.761Z,29.73
2022-12-31T23:17:00.291Z,21.10
2022-12-31T23:20:05.677Z,24.77
2022-12-31T23:22:50.910Z,14.60
2022-12-31T23:25:20.341Z,20.73
2022-12-31T23:27:47.992Z,18.90
2022-12-31T23:30:15.748Z,19.83
2022-12-31T23:32:43.606Z,25.88
2022-12-31T23:35:11.376Z,20.17
2022-12-31T23:37:39.156Z,18.50
2022-12-31T23:40:08.350Z,13.48
2022-12-31T23:42:37.567Z,14.52
2022-12-31T23:45:05.958Z,13.93
2022-12-31T23:47:33.776Z,20.83
2022-12-31T23:50:01.456Z,12.50
2022-12-31T23:52:29.189Z,15.33
2022-12-31T23:54:56.891Z,11.23
2022-12-31T23:57:24.630Z,13.40
2022-12-31T23:59:53.716Z,10.63
